Accueil
METAR-TAF:

METAR-TAF

Aéroports :

Aéroport international de Maroua Salak

Maroua, Cameroun

latitude: 10-27N, longitude: 014-15E, altitude: 423 m

Observation

Le bulletin a été fait il y a 1 heure et 5 minutes, à 15:00 UTC
Vent 3 kt de direction variable
Température 39°C
Humidité 21%
Pression 1007 hPa
Visibilité 10 km ou plus
pas de nuages en-dessous de 1500 mètres et pas de cumulonimbus.

METAR: FKKL 141500Z VRB03KT CAVOK 39/13 Q1007

Heure: 17:05 (16:05 UTC)

Prévision

Le bulletin a été fait il y a 11 heures et 5 minutes, à 05:00 UTC
Prévision valable du 14 à 06 UTC au 14 à 18 UTC
Vent 9 kt de est/nord-est
Visibilité: 8000 m
Quelques nuages à une hauteur de 4500 ft
Probabilité 30%
du 14 à 14 UTC au 14 à 18 UTC
Quelques nuages à une hauteur de 4500 ft, Cumulonimbus.
orage

TAF: FKKL 140500Z 1406/1418 06009KT 8000 FEW045 PROB30 1414/1418 TS FEW045CB

Observations et prévisions météorologiques de plus de 4000 aéroports (messages METAR et TAF).

Les stations disponibles sont représentées par des disques jaunes et rouges sur la carte.

Passer la souris dessus pour voir le nom de la station.

Cliquer dessus pour voir les observations et prévisions météorologiques.

Pour changer de carte: cliquez sur les boutons verts avec une croix noire pour zoomer, sur le bouton vert avec un tiret pour effectuer un zoom arrière, ou sur les flèches vertes pour les cartes adjacentes.


METAR-TAF: